Burns Pinion Ridge Reserve, California Weather observations

Data are for 10 minute period ending at time listed.
 Day   Time   Solar   Ave.   Ave.  Ave.  Vector  Max.   Baro.   Total    
  of    of     Rad.   Air    Rel.  Wind   Wind   Wind  Press.  Precip.   
Year   Day            Temp.  Hum.  Speed  Dir.   Gust                    
2014   (PST)  Kw/m2    F      %     mph   deg.    mph    mb.     in.     
-------------------------------------------------------------------------
 244   12:10   0.98   89.8    10    6.9   203    14.1   873.6    0.00 
 244   12:20   0.97   88.6    10    7.0   213    14.2   873.6    0.00 
 244   12:30   0.96   89.2    10    6.6   204    13.8   873.5    0.00 
 244   12:40   0.96   90.6    10    6.4   228    13.8   873.5    0.00 
 244   12:50   0.95   90.8    10    6.3   221    13.9   873.4    0.00 
 244   13:00   0.94   90.5    11    6.1   214    14.0   873.3    0.00 
 244   13:10   0.92   89.6    11    8.8   222    15.1   873.3    0.00 
 244   13:20   0.91   90.2    11    7.1   215    14.9   873.2    0.00 
 244   13:30   0.89   90.5    10    7.6   228    12.8   873.1    0.00 
 244   13:40   0.87   89.8    11    6.3   213    13.2   873.0    0.00 
 244   13:50   0.84   90.4    11    7.2   215    12.6   872.9    0.00 
 244   14:00   0.82   90.5    11    6.7   208    13.8   872.8    0.00 
 244   14:10   0.80   90.4    11    8.2   221    14.7   872.7    0.00 
 244   14:20   0.77   90.7    11    6.0   206    12.5   872.6    0.00 
 244   14:30   0.74   89.8    11    7.7   218    18.2   872.6    0.00 
 244   14:40   0.72   90.8    11    6.1   215    12.8   872.5    0.00 
 244   14:50   0.69   90.4    11    7.1   223    15.6   872.6    0.00 
 244   15:00   0.66   90.7    11    7.4   213    15.0   872.6    0.00 
 244   15:10   0.62   89.9    11    7.5   219    15.0   872.5    0.00 
 244   15:20   0.59   89.6    11    8.2   214    18.3   872.5    0.00 
 244   15:30   0.56   90.8    12    5.3   202    13.9   872.5    0.00 
 244   15:40   0.52   89.7    12    7.2   208    16.1   872.5    0.00 
 244   15:50   0.48   90.0    12    6.5   175    14.2   872.5    0.00 
 244   16:00   0.45   89.4    12    7.8   200    15.6   872.5    0.00 
 244   16:10   0.41   88.7    12    8.6   208    16.7   872.5    0.00 
 244   16:20   0.37   89.1    12    6.8   213    14.7   872.5    0.00 
 244   16:30   0.34   89.4    12    6.1   217    16.1   872.4    0.00 
 244   16:40   0.30   89.1    12    6.6   201    12.5   872.5    0.00 
 244   16:50   0.26   88.1    12    8.2   222    13.2   872.6    0.00 
 244   17:00   0.23   87.3    12    7.8   214    12.7   872.6    0.00 
 244   17:10   0.19   87.1    12    7.6   214    13.5   872.6    0.00 
 244   17:20   0.15   87.0    11    7.5   213    14.1   872.6    0.00 
 244   17:30   0.12   86.3    11    6.9   211    15.0   872.6    0.00 
 244   17:40   0.08   85.5    12    7.1   214    11.5   872.6    0.00 
 244   17:50   0.06   85.1    12    5.7   210    12.2   872.7    0.00 
 244   18:00   0.02   83.9    13    5.1   208    10.2   872.7    0.00 
 244   18:10   0.01   82.6    13    4.4   202     9.7   872.7    0.00 
 244   18:20   0.00   82.2    13    5.0   199    10.1   872.7    0.00 
 244   18:30   0.00   81.7    13    6.7   216    10.4   872.9    0.00 
 244   18:40   0.00   81.1    13    4.9   220     9.4   873.0    0.00 
 244   18:50   0.00   80.6    13    6.0   222     9.3   873.1    0.00 
 244   19:00   0.00   80.5    13    5.8   216    12.1   873.2    0.00 
 244   19:10   0.00   79.8    14    4.1   218    10.4   871.4    0.00 
 244   19:20   0.00   79.8    14    3.9   205     9.7   873.3    0.00 
 244   19:30   0.00   79.6    15    5.6   223    10.4   873.5    0.00 
 244   19:40   0.00   79.3    15    4.1   207     9.7   873.5    0.00 
 244   19:50   0.00   79.0    15    5.1   214    10.0   873.5    0.00 
 244   20:00   0.00   78.9    16    4.6   221     8.8   873.6    0.00 
 244   20:10   0.00   78.6    16    3.4   221     7.7   871.8    0.00 
 244   20:20   0.00   78.2    16    3.9   224     8.6   873.7    0.00 
 244   20:30   0.00   78.5    16    4.9   220    10.4   873.7    0.00 
 244   20:40   0.00   78.1    16    3.0   204     8.7   873.8    0.00 
 244   20:50   0.00   77.7    16    3.2   209     8.0   873.8    0.00 
 244   21:00   0.00   78.2    16    4.3   199     8.3   873.8    0.00 
 244   21:10   0.00   78.5    16    4.8   203     9.9   537.2    0.00 
 244   21:20   0.00   78.5    17    5.6   210    10.8   501.8    0.00 
 244   21:30   0.00   79.2    17    7.3   216    12.9   501.8    0.00 
 244   21:40   0.00   79.3    17    7.1   214    12.6   501.8    0.00 
 244   21:50   0.00   79.3    17    7.1   211    10.4   501.8    0.00 
 244   22:00   0.00   79.0    18    5.9   212    11.5   501.8    0.00 
 244   22:10   0.00   78.9    18    6.8   213     9.9   838.4    0.00 
 244   22:20   0.00   78.8    18    5.7   214     9.9   873.8    0.00 
 244   22:30   0.00   77.8    18    3.1   222     7.2   873.8    0.00 
 244   22:40   0.00   77.1    19    3.0   225     4.2   873.7    0.00 
 244   22:50   0.00   75.8    19    2.7   230     5.3   873.6    0.00 
 244   23:00   0.00   76.3    18    2.5   234     5.7   873.6    0.00 
 244   23:10   0.00   76.0    19    3.2   230     5.2   537.1    0.00 
 244   23:20   0.00   75.8    19    2.7   225     4.2   501.8    0.00 
 244   23:30   0.00   75.6    19    3.5   228     6.4   501.8    0.00 
 244   23:40   0.00   75.7    19    3.1   224     4.6   501.8    0.00 
 244   23:50   0.00   76.1    18    4.5   219     7.7   501.8    0.00 
 245    0:00   0.00   76.9    18    2.5   200     7.3   501.8    0.00 
 245    0:10   0.00   75.1    19    2.7   201     6.7   838.1    0.00 
 245    0:20   0.00   74.4    19    1.2   177     5.8   873.3    0.00 
 245    0:30   0.00   72.9    20    1.6   173     4.5   873.2    0.00 
 245    0:40   0.00   72.4    20    1.5   193     3.7   873.1    0.00 
 245    0:50   0.00   73.5    19    1.4   193     5.6   873.0    0.00 
 245    1:00   0.00   74.5    19    3.4   221     6.9   873.0    0.00 
 245    1:10   0.00   76.5    18    4.6   224     8.0   873.2    0.00 
 245    1:20   0.00   76.5    19    3.8   221     6.9   873.3    0.00 
 245    1:30   0.00   76.3    18    3.4   223     6.4   873.3    0.00 
 245    1:40   0.00   75.2    19    1.5   190     5.9   873.3    0.00 
 245    1:50   0.00   74.1    20    0.9   192     2.6   873.3    0.00 
 245    2:00   0.00   73.1    21    1.6   187     5.0   873.3    0.00 
 245    2:10   0.00   73.7    20    1.8   204     4.7   873.3    0.00 
 245    2:20   0.00   73.9    20    1.8   189     3.6   873.2    0.00 
 245    2:30   0.00   74.0    20    1.3   185     3.6   873.2    0.00 
 245    2:40   0.00   73.3    20    1.6   180     4.3   873.2    0.00 
 245    2:50   0.00   73.5    20    3.1   166     6.1   873.2    0.00 
 245    3:00   0.00   73.3    20    2.2   171     4.8   873.2    0.00 
 245    3:10   0.00   72.4    21    2.0   169     3.3   873.2    0.00 
 245    3:20   0.00   72.4    22    2.4   171     6.8   873.3    0.00 
 245    3:30   0.00   73.2    23    2.9   173     5.1   873.2    0.00 
 245    3:40   0.00   73.5    22    2.5   167     5.6   873.2    0.00 
 245    3:50   0.00   73.4    22    2.7   176     5.7   873.3    0.00 
 245    4:00   0.00   73.4    22    2.7   178     6.9   873.3    0.00 
 245    4:10   0.00   73.3    22    1.9   187     4.9   873.4    0.00 
 245    4:20   0.00   73.0    22    2.7   199     8.8   873.4    0.00 
 245    4:30   0.00   74.0    21    3.1   184     5.7   873.4    0.00 
 245    4:40   0.00   73.3    21    3.2   180     6.5   873.5    0.00 
 245    4:50   0.00   72.0    22    1.8   169     4.3   873.5    0.00 
 245    5:00   0.00   70.6    23    2.0   157     4.1   873.5    0.00 
 245    5:10   0.00   68.7    24    0.4   172     2.3   873.4    0.00 
 245    5:20   0.00   65.6    27    0.5   234     3.4   873.5    0.00 
 245    5:30   0.01   64.6    28    2.1   222     3.9   873.5    0.00 
 245    5:40   0.01   63.8    28    0.5   230     2.0   873.5    0.00 
 245    5:50   0.01   63.4    29    0.5   206     2.3   873.5    0.00 
 245    6:00   0.01   64.6    28    0.3   214     1.8   873.5    0.00 
 245    6:10   0.03   65.6    27    1.1   238     4.0   873.6    0.00 
 245    6:20   0.15   71.2    23    1.6   189     3.6   873.6    0.00 
 245    6:30   0.18   78.9    18    1.2   196     4.6   873.6    0.00 
 245    6:40   0.22   81.7    16    1.9   191     5.3   873.7    0.00 
 245    6:50   0.26   82.2    15    2.2   199     4.5   873.9    0.00 
 245    7:00   0.30   83.7    14    2.1   182     4.7   874.2    0.00 
 245    7:10   0.34   83.4    14    2.6   214     4.7   874.3    0.00 
 245    7:20   0.37   83.3    14    2.4   213     5.3   874.3    0.00 
 245    7:30   0.41   83.9    14    2.6   196     5.1   874.4    0.00 
 245    7:40   0.45   84.9    14    3.1   170     7.5   874.4    0.00 
 245    7:50   0.49   86.1    14    4.5   148     9.0   874.4    0.00 
 245    8:00   0.52   85.1    15    5.9   142    10.9   874.5    0.00 
 245    8:10   0.56   85.5    15    6.4   146     9.7   872.6    0.00 
 245    8:20   0.59   86.2    14    5.6   143     9.3   874.5    0.00 
 245    8:30   0.62   86.4    14    7.6   150    12.6   874.5    0.00 
 245    8:40   0.66   86.6    13    7.2   149    12.6   874.5    0.00 
 245    8:50   0.69   87.5    14    7.0   151    12.9   874.4    0.00 
 245    9:00   0.72   87.7    13    7.0   151    12.6   874.4    0.00 
 245    9:10   0.75   88.3    13    6.9   154    12.6   874.5    0.00 
 245    9:20   0.78   88.3    12    8.0   154    15.1   874.5    0.00 
 245    9:30   0.80   88.7    11    8.2   145    12.6   874.5    0.00 
 245    9:40   0.83   88.9    11    7.7   145    13.9   874.5    0.00 
 245    9:50   0.85   88.8    10    7.0   143    14.4   874.4    0.00 
 245   10:00   0.87   89.7    10    6.7   162    12.6   874.4    0.00 
 245   10:10   0.89   89.0    10    6.1   210    11.3   874.3    0.00 
 245   10:20   0.91   89.9    10    4.0   185    10.2   874.3    0.00 
 245   10:30   0.92   90.3    10    6.1   188    12.1   874.2    0.00 
 245   10:40   0.94   91.1     9    5.4   187    12.1   874.2    0.00 
 245   10:50   0.95   90.1    10    6.7   194    22.7   874.1    0.00 
 245   11:00   0.95   91.4    10    5.3   209    12.8   874.0    0.00 
 245   11:10   0.96   90.8    10    5.7   185    11.8   874.0    0.00 
 245   11:20   0.97   91.1    10    6.9   193    15.5   874.0    0.00 
 245   11:30   0.97   89.4    11    8.8   209    15.7   873.9    0.00 
 245   11:40   0.98   89.7    11    7.1   211    14.8   873.9    0.00 
 245   11:50   0.97   89.9    11    8.1   215    18.7   873.8    0.00 
 245   12:00   0.96   89.5    12    9.2   217    17.9   873.8    0.00 

Return to Burns Pinion Ridge Reserve graphs page.


Western Regional Climate Center,wrcc@dri.edu